createdAt,value
2023-12-24T00:00:37.364Z,100.00
2023-12-24T00:04:43.284Z,100.00
2023-12-24T00:08:46.229Z,100.00
2023-12-24T00:12:49.485Z,100.00
2023-12-24T00:16:52.664Z,100.00
2023-12-24T00:20:57.575Z,100.00
2023-12-24T00:25:00.485Z,100.00
2023-12-24T00:29:03.722Z,100.00
2023-12-24T00:33:06.912Z,100.00
2023-12-24T00:37:12.041Z,100.00
2023-12-24T00:41:16.155Z,100.00
2023-12-24T00:45:19.232Z,100.00
2023-12-24T00:49:22.169Z,100.00
2023-12-24T00:53:27.032Z,100.00
2023-12-24T00:57:30.285Z,100.00
2023-12-24T01:01:33.190Z,100.00
2023-12-24T01:05:36.722Z,100.00
2023-12-24T01:09:41.547Z,100.00
2023-12-24T01:13:44.551Z,100.00
2023-12-24T01:17:49.109Z,100.00
2023-12-24T01:21:57.298Z,100.00
2023-12-24T01:26:01.931Z,100.00
2023-12-24T01:30:07.264Z,100.00
2023-12-24T01:34:10.451Z,100.00
2023-12-24T01:38:13.477Z,100.00
2023-12-24T01:42:17.912Z,100.00
2023-12-24T01:46:22.861Z,100.00
2023-12-24T01:50:26.945Z,100.00
2023-12-24T01:54:32.884Z,100.00
2023-12-24T01:58:37.519Z,100.00
2023-12-24T02:02:41.165Z,100.00
2023-12-24T02:06:44.224Z,100.00
2023-12-24T02:10:47.540Z,100.00
2023-12-24T02:14:51.892Z,100.00
2023-12-24T02:18:54.959Z,100.00
2023-12-24T02:22:59.630Z,100.00
2023-12-24T02:27:10.447Z,100.00
2023-12-24T02:31:16.578Z,100.00
2023-12-24T02:35:20.644Z,100.00
2023-12-24T02:39:25.056Z,100.00
2023-12-24T02:43:27.989Z,100.00
2023-12-24T02:47:31.106Z,100.00
2023-12-24T02:51:34.066Z,100.00
2023-12-24T02:55:38.472Z,100.00
2023-12-24T02:59:41.524Z,100.00
2023-12-24T03:03:44.816Z,100.00
2023-12-24T03:07:47.801Z,100.00
2023-12-24T03:11:52.690Z,100.00
2023-12-24T03:15:56.070Z,100.00
2023-12-24T03:19:59.263Z,100.00
2023-12-24T03:24:02.242Z,100.00
2023-12-24T03:28:07.524Z,100.00
2023-12-24T03:32:10.879Z,100.00
2023-12-24T03:36:13.955Z,100.00
2023-12-24T03:40:17.549Z,100.00
2023-12-24T03:44:24.714Z,100.00
2023-12-24T03:48:27.829Z,100.00
2023-12-24T03:52:30.889Z,100.00
2023-12-24T03:56:33.974Z,100.00
2023-12-24T04:00:38.612Z,100.00
2023-12-24T04:04:46.269Z,100.00
2023-12-24T04:08:49.213Z,100.00
2023-12-24T04:12:52.841Z,100.00
2023-12-24T04:16:57.508Z,100.00
2023-12-24T04:21:00.537Z,100.00
2023-12-24T04:25:03.880Z,100.00
2023-12-24T04:29:06.945Z,100.00
2023-12-24T04:33:14.158Z,100.00
2023-12-24T04:37:17.231Z,100.00
2023-12-24T04:41:21.134Z,100.00
2023-12-24T04:45:24.429Z,100.00
2023-12-24T04:49:29.682Z,100.00
2023-12-24T04:53:32.875Z,100.00
2023-12-24T04:57:35.932Z,100.00
2023-12-24T05:01:38.974Z,100.00
2023-12-24T05:05:43.488Z,100.00
2023-12-24T05:09:47.094Z,100.00
2023-12-24T05:13:50.179Z,100.00
2023-12-24T05:17:53.235Z,100.00
2023-12-24T05:21:57.915Z,100.00
2023-12-24T05:26:01.255Z,100.00
2023-12-24T05:30:04.747Z,100.00
2023-12-24T05:34:07.932Z,100.00
2023-12-24T05:38:12.286Z,100.00
2023-12-24T05:42:15.293Z,100.00
2023-12-24T05:46:18.512Z,100.00
2023-12-24T05:50:23.168Z,100.00
2023-12-24T05:54:28.594Z,100.00
2023-12-24T05:58:31.599Z,100.00
2023-12-24T06:02:34.542Z,100.00
2023-12-24T06:06:41.960Z,100.00
2023-12-24T06:10:46.563Z,100.00
2023-12-24T06:14:50.649Z,100.00
2023-12-24T06:18:53.748Z,100.00
2023-12-24T06:22:56.725Z,100.00
2023-12-24T06:27:01.403Z,100.00
2023-12-24T06:31:04.796Z,100.00
2023-12-24T06:35:08.104Z,100.00
2023-12-24T06:39:11.089Z,100.00
2023-12-24T06:43:15.379Z,100.00
2023-12-24T06:47:18.367Z,100.00
2023-12-24T06:51:21.327Z,100.00
2023-12-24T06:55:24.254Z,100.00
2023-12-24T06:59:28.587Z,100.00
2023-12-24T07:03:31.665Z,100.00
2023-12-24T07:07:35.031Z,100.00
2023-12-24T07:11:38.052Z,100.00
2023-12-24T07:15:43.680Z,100.00
2023-12-24T07:19:46.722Z,100.00
2023-12-24T07:23:49.744Z,100.00
2023-12-24T07:27:52.713Z,100.00
2023-12-24T07:31:57.034Z,100.00
2023-12-24T07:35:59.976Z,100.00
2023-12-24T07:40:03.070Z,100.00
2023-12-24T07:44:06.297Z,100.00
2023-12-24T07:48:10.799Z,100.00
2023-12-24T07:52:13.756Z,100.00
2023-12-24T07:56:16.701Z,100.00
2023-12-24T08:00:20.089Z,100.00
2023-12-24T08:04:24.389Z,100.00
2023-12-24T08:08:27.390Z,100.00
2023-12-24T08:12:30.457Z,100.00
2023-12-24T08:16:33.887Z,100.00
2023-12-24T08:20:38.277Z,100.00
2023-12-24T08:24:41.321Z,100.00
2023-12-24T08:28:44.291Z,100.00
2023-12-24T08:32:48.016Z,100.00
2023-12-24T08:36:52.592Z,100.00
2023-12-24T08:40:55.655Z,100.00
2023-12-24T08:44:58.563Z,100.00
2023-12-24T08:49:01.612Z,100.00
2023-12-24T08:53:06.203Z,100.00
2023-12-24T08:57:09.405Z,98.20
2023-12-24T09:01:12.319Z,98.65
2023-12-24T09:05:15.517Z,96.00
2023-12-24T09:09:19.940Z,98.56
2023-12-24T09:13:23.324Z,100.00
2023-12-24T09:17:26.576Z,100.00
2023-12-24T09:21:29.573Z,99.70
2023-12-24T09:25:33.945Z,99.36
2023-12-24T09:29:36.880Z,97.44
2023-12-24T09:33:40.010Z,100.00
2023-12-24T09:37:43.884Z,100.00
2023-12-24T09:41:51.068Z,100.00
2023-12-24T09:45:54.089Z,100.00
2023-12-24T09:49:59.452Z,100.00
2023-12-24T09:54:03.193Z,100.00
2023-12-24T09:58:07.600Z,100.00
2023-12-24T10:02:10.986Z,100.00
2023-12-24T10:06:15.894Z,100.00
2023-12-24T10:10:41.286Z,100.00
2023-12-24T10:14:57.374Z,100.00
2023-12-24T10:19:01.109Z,100.00
2023-12-24T10:23:08.712Z,100.00
2023-12-24T10:27:17.313Z,100.00
2023-12-24T10:31:26.822Z,100.00
2023-12-24T10:35:30.717Z,100.00
2023-12-24T10:39:36.605Z,100.00
2023-12-24T10:43:51.694Z,100.00
2023-12-24T10:58:54.494Z,100.00
2023-12-24T11:03:04.923Z,100.00
2023-12-24T11:07:09.175Z,100.00
2023-12-24T11:11:16.183Z,100.00
2023-12-24T11:15:47.399Z,100.00
2023-12-24T11:19:55.364Z,100.00
2023-12-24T11:24:27.943Z,100.00
2023-12-24T11:28:45.168Z,100.00
2023-12-24T11:32:50.754Z,100.00
2023-12-24T11:37:04.494Z,100.00
2023-12-24T11:41:08.472Z,100.00
2023-12-24T11:45:20.599Z,100.00
2023-12-24T11:49:25.124Z,100.00
2023-12-24T11:53:28.333Z,100.00
2023-12-24T11:57:31.740Z,100.00
2023-12-24T12:01:39.426Z,100.00
2023-12-24T12:05:43.946Z,100.00
2023-12-24T12:09:47.078Z,100.00
2023-12-24T12:13:50.294Z,100.00
2023-12-24T12:17:53.478Z,100.00
2023-12-24T12:21:58.020Z,100.00
2023-12-24T12:26:01.100Z,100.00
2023-12-24T12:30:04.541Z,100.00
2023-12-24T12:34:07.635Z,100.00
2023-12-24T12:38:13.269Z,100.00
2023-12-24T12:42:35.522Z,100.00
2023-12-24T12:46:49.247Z,100.00
2023-12-24T12:50:52.530Z,100.00
2023-12-24T12:55:04.544Z,100.00
2023-12-24T12:59:07.656Z,100.00
2023-12-24T13:03:10.874Z,100.00
2023-12-24T13:07:13.977Z,100.00
2023-12-24T13:11:21.611Z,100.00
2023-12-24T13:15:25.437Z,100.00
2023-12-24T13:19:30.039Z,100.00
2023-12-24T13:23:33.991Z,100.00
2023-12-24T13:27:39.163Z,100.00
2023-12-24T13:31:42.169Z,100.00
2023-12-24T13:35:46.137Z,100.00
2023-12-24T13:39:49.346Z,100.00
2023-12-24T13:43:53.608Z,100.00
2023-12-24T13:47:56.766Z,100.00
2023-12-24T13:51:59.787Z,100.00
2023-12-24T13:56:03.510Z,100.00
2023-12-24T14:00:09.661Z,100.00
2023-12-24T14:04:13.418Z,100.00
2023-12-24T14:08:16.906Z,100.00
2023-12-24T14:12:19.879Z,100.00
2023-12-24T14:16:24.239Z,100.00
2023-12-24T14:20:27.597Z,100.00
2023-12-24T14:24:30.688Z,100.00
2023-12-24T14:28:33.594Z,100.00
2023-12-24T14:32:38.019Z,100.00
2023-12-24T14:36:41.097Z,100.00
2023-12-24T14:40:44.124Z,100.00
2023-12-24T14:44:47.266Z,100.00
2023-12-24T14:48:51.648Z,100.00
2023-12-24T14:52:55.980Z,100.00
2023-12-24T14:56:59.611Z,100.00
2023-12-24T15:01:03.056Z,100.00
2023-12-24T15:05:08.889Z,100.00
2023-12-24T15:09:13.060Z,100.00
2023-12-24T15:13:16.021Z,100.00
2023-12-24T15:17:19.128Z,100.00
2023-12-24T15:21:23.485Z,100.00
2023-12-24T15:25:27.517Z,100.00
2023-12-24T15:29:30.621Z,100.00
2023-12-24T15:33:36.156Z,100.00
2023-12-24T15:37:41.324Z,100.00
2023-12-24T15:41:44.331Z,100.00
2023-12-24T15:45:47.353Z,100.00
2023-12-24T15:49:52.937Z,100.00
2023-12-24T15:53:57.250Z,100.00
2023-12-24T15:58:00.185Z,100.00
2023-12-24T16:02:03.069Z,100.00
2023-12-24T16:06:07.111Z,100.00
2023-12-24T16:10:11.619Z,100.00
2023-12-24T16:14:14.651Z,100.00
2023-12-24T16:18:17.801Z,100.00
2023-12-24T16:22:20.806Z,100.00
2023-12-24T16:26:25.161Z,100.00
2023-12-24T16:30:28.086Z,100.00
2023-12-24T16:34:31.157Z,100.00
2023-12-24T16:38:34.848Z,100.00
2023-12-24T16:42:39.921Z,100.00
2023-12-24T16:46:42.873Z,100.00
2023-12-24T16:50:45.892Z,100.00
2023-12-24T16:54:48.849Z,100.00
2023-12-24T16:58:57.738Z,100.00
2023-12-24T17:03:00.747Z,100.00
2023-12-24T17:07:03.772Z,100.00
2023-12-24T17:11:07.431Z,100.00
2023-12-24T17:15:11.941Z,100.00
2023-12-24T17:19:41.096Z,100.00
2023-12-24T17:23:44.384Z,100.00
2023-12-24T17:27:49.755Z,100.00
2023-12-24T17:31:54.088Z,100.00
2023-12-24T17:35:56.991Z,100.00
2023-12-24T17:39:59.903Z,100.00
2023-12-24T17:44:03.058Z,100.00
2023-12-24T17:48:13.919Z,100.00
2023-12-24T17:52:22.675Z,100.00
2023-12-24T17:56:25.718Z,100.00
2023-12-24T18:00:29.081Z,100.00
2023-12-24T18:04:33.371Z,100.00
2023-12-24T18:08:36.335Z,100.00
2023-12-24T18:12:39.279Z,100.00
2023-12-24T18:16:42.423Z,100.00
2023-12-24T18:20:46.786Z,100.00
2023-12-24T18:24:49.746Z,100.00
2023-12-24T18:28:53.169Z,100.00
2023-12-24T18:32:56.483Z,100.00
2023-12-24T18:37:01.074Z,100.00
2023-12-24T18:41:03.997Z,100.00
2023-12-24T18:45:08.011Z,100.00
2023-12-24T18:49:11.044Z,100.00
2023-12-24T18:53:15.477Z,100.00
2023-12-24T18:57:18.452Z,100.00
2023-12-24T19:01:21.402Z,100.00
2023-12-24T19:05:24.345Z,100.00
2023-12-24T19:09:28.697Z,100.00
2023-12-24T19:13:31.677Z,100.00
2023-12-24T19:17:34.875Z,100.00
2023-12-24T19:21:37.984Z,100.00
2023-12-24T19:25:42.401Z,100.00
2023-12-24T19:29:49.308Z,100.00
2023-12-24T19:33:52.321Z,100.00
2023-12-24T19:37:55.367Z,100.00
2023-12-24T19:41:59.681Z,100.00
2023-12-24T19:46:04.812Z,100.00
2023-12-24T19:50:08.304Z,100.00
2023-12-24T19:54:12.120Z,100.00
2023-12-24T19:58:16.537Z,100.00
2023-12-24T20:02:19.432Z,100.00
2023-12-24T20:06:22.494Z,100.00
2023-12-24T20:10:25.498Z,100.00
2023-12-24T20:14:30.056Z,100.00
2023-12-24T20:18:33.113Z,100.00
2023-12-24T20:22:36.168Z,100.00
2023-12-24T20:26:40.622Z,100.00
2023-12-24T20:30:45.107Z,100.00
2023-12-24T20:34:49.480Z,100.00
2023-12-24T20:38:52.536Z,100.00
2023-12-24T20:42:55.832Z,100.00
2023-12-24T20:47:00.208Z,100.00
2023-12-24T20:51:04.183Z,100.00
2023-12-24T20:55:08.849Z,100.00
2023-12-24T20:59:12.167Z,100.00
2023-12-24T21:03:17.619Z,100.00
2023-12-24T21:07:20.625Z,100.00
2023-12-24T21:11:23.671Z,100.00
2023-12-24T21:15:26.886Z,100.00
2023-12-24T21:19:31.236Z,100.00
2023-12-24T21:23:34.267Z,100.00
2023-12-24T21:27:38.446Z,100.00
2023-12-24T21:31:41.401Z,100.00
2023-12-24T21:35:45.776Z,100.00
2023-12-24T21:39:48.783Z,100.00
2023-12-24T21:43:52.575Z,100.00
2023-12-24T21:47:55.868Z,100.00
2023-12-24T21:52:00.488Z,100.00
2023-12-24T21:56:04.216Z,100.00
2023-12-24T22:00:09.027Z,100.00
2023-12-24T22:04:12.150Z,100.00
2023-12-24T22:08:16.513Z,100.00
2023-12-24T22:12:25.079Z,100.00
2023-12-24T22:16:28.909Z,100.00
2023-12-24T22:20:31.925Z,100.00
2023-12-24T22:24:36.194Z,100.00
2023-12-24T22:28:40.293Z,100.00
2023-12-24T22:32:43.291Z,100.00
2023-12-24T22:36:46.319Z,100.00
2023-12-24T22:40:50.612Z,100.00
2023-12-24T22:44:53.629Z,100.00
2023-12-24T22:48:56.773Z,100.00
2023-12-24T22:53:02.100Z,97.27
2023-12-24T22:57:06.816Z,96.46
2023-12-24T23:01:10.482Z,96.83
2023-12-24T23:05:14.147Z,81.80
2023-12-24T23:09:17.459Z,82.21
2023-12-24T23:13:22.731Z,83.98
2023-12-24T23:17:25.727Z,84.37
2023-12-24T23:21:28.739Z,81.89
2023-12-24T23:25:31.653Z,84.58
2023-12-24T23:29:36.065Z,79.43
2023-12-24T23:33:39.092Z,75.35
2023-12-24T23:37:42.136Z,77.80
2023-12-24T23:41:45.099Z,79.87
2023-12-24T23:45:49.450Z,76.94
2023-12-24T23:49:52.496Z,81.03
2023-12-24T23:53:56.307Z,80.77
2023-12-24T23:57:59.330Z,80.93
